WWW4MW KVCV-KNKX
Flight info
| Callsign | WWW4MW |
|---|---|
| Flight time | 0h 35m |
| Altitude | 17000 |
| Route | APLES V386 PSP JLI RYNNO |
| Aircraft | B736/M-SDE2E3FGHIRWXY/LB1 |
Departure
| Time | 2026-04-23 18:50 |
|---|---|
| Airport | Southern California Logistics Airport (KVCV) |
Arrival
| Time | 2026-04-23 19:25 |
|---|---|
| Airport | Miramar Marine Corps Air Station - Mitscher Field (KNKX) |
| Time | Latitude | Longitude | Altitude | Speed | Heading |
|---|---|---|---|---|---|
| 2026-04-23 18:26 | 34.58469 | -117.38024 | 2872 ft | 0 kts | 134° |
| 2026-04-23 18:46 | 34.58463 | -117.38022 | 2872 ft | 3 kts | 164° |
| 2026-04-23 18:47 | 34.58451 | -117.38038 | 2872 ft | 3 kts | 260° |
| 2026-04-23 18:47 | 34.58463 | -117.38131 | 2870 ft | 21 kts | 276° |
| 2026-04-23 18:47 | 34.58424 | -117.38304 | 2868 ft | 23 kts | 230° |
| 2026-04-23 18:47 | 34.58307 | -117.38423 | 2868 ft | 22 kts | 186° |
| 2026-04-23 18:48 | 34.58156 | -117.38430 | 2868 ft | 21 kts | 181° |
| 2026-04-23 18:48 | 34.58048 | -117.38508 | 2869 ft | 21 kts | 262° |
| 2026-04-23 18:48 | 34.58057 | -117.38638 | 2870 ft | 0 kts | 348° |
| 2026-04-23 18:49 | 34.58067 | -117.38636 | 2870 ft | 1 kts | 3° |
| 2026-04-23 18:49 | 34.58120 | -117.38638 | 2871 ft | 28 kts | 359° |
| 2026-04-23 18:49 | 34.58564 | -117.38642 | 2865 ft | 99 kts | 358° |
| 2026-04-23 18:49 | 34.59461 | -117.38650 | 2880 ft | 154 kts | 359° |
| 2026-04-23 18:50 | 34.60206 | -117.38714 | 3201 ft | 160 kts | 357° |
| 2026-04-23 18:50 | 34.61669 | -117.38863 | 4385 ft | 149 kts | 4° |
| 2026-04-23 18:50 | 34.62727 | -117.38824 | 5075 ft | 161 kts | 2° |
| 2026-04-23 18:50 | 34.63977 | -117.38801 | 5408 ft | 198 kts | 2° |
| 2026-04-23 18:51 | 34.65453 | -117.38622 | 5692 ft | 230 kts | 22° |
| 2026-04-23 18:51 | 34.66762 | -117.37364 | 6029 ft | 257 kts | 60° |
| 2026-04-23 18:51 | 34.67167 | -117.35243 | 6909 ft | 265 kts | 95° |
| 2026-04-23 18:51 | 34.66488 | -117.33156 | 7851 ft | 274 kts | 124° |
| 2026-04-23 18:52 | 34.65252 | -117.31338 | 8681 ft | 285 kts | 131° |
| 2026-04-23 18:52 | 34.63910 | -117.29504 | 9526 ft | 295 kts | 132° |
| 2026-04-23 18:52 | 34.62566 | -117.27574 | 10406 ft | 302 kts | 130° |
| 2026-04-23 18:52 | 34.61242 | -117.25553 | 11207 ft | 310 kts | 129° |
| 2026-04-23 18:53 | 34.59945 | -117.23473 | 12051 ft | 316 kts | 128° |
| 2026-04-23 18:53 | 34.58635 | -117.21309 | 12995 ft | 320 kts | 128° |
| 2026-04-23 18:53 | 34.57320 | -117.19117 | 13999 ft | 321 kts | 128° |
| 2026-04-23 18:53 | 34.56002 | -117.16915 | 14894 ft | 323 kts | 128° |
| 2026-04-23 18:54 | 34.54886 | -117.14537 | 15781 ft | 329 kts | 111° |
| 2026-04-23 18:54 | 34.54387 | -117.11804 | 16566 ft | 335 kts | 98° |
| 2026-04-23 18:54 | 34.54113 | -117.08997 | 16873 ft | 335 kts | 96° |
| 2026-04-23 18:54 | 34.53882 | -117.06168 | 16929 ft | 339 kts | 95° |
| 2026-04-23 18:55 | 34.53651 | -117.03318 | 16936 ft | 338 kts | 96° |
| 2026-04-23 18:55 | 34.53411 | -117.00498 | 16899 ft | 334 kts | 96° |
| 2026-04-23 18:55 | 34.53162 | -116.97721 | 16903 ft | 329 kts | 96° |
| 2026-04-23 18:55 | 34.52910 | -116.94940 | 16904 ft | 333 kts | 96° |
| 2026-04-23 18:56 | 34.52736 | -116.93077 | 16919 ft | 337 kts | 96° |
| 2026-04-23 18:56 | 34.52380 | -116.89339 | 16908 ft | 336 kts | 96° |
| 2026-04-23 18:56 | 34.52110 | -116.86521 | 16903 ft | 335 kts | 97° |
| 2026-04-23 18:56 | 34.51839 | -116.83708 | 16899 ft | 335 kts | 97° |
| 2026-04-23 18:57 | 34.51570 | -116.80907 | 16901 ft | 334 kts | 97° |
| 2026-04-23 18:57 | 34.51300 | -116.78108 | 16903 ft | 334 kts | 96° |
| 2026-04-23 18:57 | 34.51029 | -116.75309 | 16902 ft | 334 kts | 96° |
| 2026-04-23 18:57 | 34.50758 | -116.72516 | 16902 ft | 334 kts | 97° |
| 2026-04-23 18:58 | 34.50112 | -116.69830 | 16885 ft | 331 kts | 122° |
| 2026-04-23 18:58 | 34.48690 | -116.67706 | 16905 ft | 321 kts | 146° |
| 2026-04-23 18:58 | 34.46807 | -116.66359 | 16899 ft | 312 kts | 166° |
| 2026-04-23 18:58 | 34.44755 | -116.65529 | 16908 ft | 312 kts | 169° |
| 2026-04-23 18:59 | 34.42666 | -116.64745 | 16900 ft | 315 kts | 169° |
| 2026-04-23 18:59 | 34.40570 | -116.63945 | 16894 ft | 317 kts | 169° |
| 2026-04-23 18:59 | 34.38493 | -116.63136 | 16892 ft | 318 kts | 168° |
| 2026-04-23 18:59 | 34.36392 | -116.62310 | 16886 ft | 318 kts | 168° |
| 2026-04-23 19:00 | 34.34290 | -116.61479 | 16889 ft | 317 kts | 168° |
| 2026-04-23 19:00 | 34.32191 | -116.60648 | 16875 ft | 316 kts | 168° |
| 2026-04-23 19:00 | 34.30104 | -116.59823 | 16874 ft | 314 kts | 168° |
| 2026-04-23 19:00 | 34.28028 | -116.59003 | 16885 ft | 314 kts | 169° |
| 2026-04-23 19:01 | 34.25954 | -116.58187 | 16876 ft | 313 kts | 169° |
| 2026-04-23 19:01 | 34.23871 | -116.57374 | 16884 ft | 312 kts | 169° |
| 2026-04-23 19:01 | 34.21833 | -116.56582 | 16893 ft | 312 kts | 169° |
| 2026-04-23 19:01 | 34.19765 | -116.55779 | 16896 ft | 312 kts | 169° |
| 2026-04-23 19:02 | 34.18365 | -116.55235 | 16891 ft | 313 kts | 169° |
| 2026-04-23 19:02 | 34.15622 | -116.54169 | 16866 ft | 313 kts | 169° |
| 2026-04-23 19:02 | 34.13550 | -116.53363 | 16882 ft | 313 kts | 169° |
| 2026-04-23 19:02 | 34.11468 | -116.52556 | 16885 ft | 314 kts | 169° |
| 2026-04-23 19:03 | 34.09381 | -116.51745 | 16877 ft | 315 kts | 169° |
| 2026-04-23 19:03 | 34.07315 | -116.50938 | 16874 ft | 315 kts | 169° |
| 2026-04-23 19:03 | 34.05224 | -116.50119 | 16870 ft | 316 kts | 168° |
| 2026-04-23 19:03 | 34.03130 | -116.49299 | 16868 ft | 317 kts | 169° |
| 2026-04-23 19:04 | 34.01028 | -116.48477 | 16859 ft | 317 kts | 169° |
| 2026-04-23 19:04 | 33.98933 | -116.47657 | 16857 ft | 316 kts | 169° |
| 2026-04-23 19:04 | 33.96841 | -116.46839 | 16860 ft | 315 kts | 169° |
| 2026-04-23 19:04 | 33.94761 | -116.46026 | 16859 ft | 314 kts | 169° |
| 2026-04-23 19:05 | 33.92681 | -116.45215 | 16860 ft | 313 kts | 169° |
| 2026-04-23 19:05 | 33.90638 | -116.44418 | 16877 ft | 312 kts | 169° |
| 2026-04-23 19:05 | 33.88568 | -116.43643 | 16868 ft | 309 kts | 174° |
| 2026-04-23 19:05 | 33.86470 | -116.43316 | 16877 ft | 299 kts | 186° |
| 2026-04-23 19:06 | 33.84425 | -116.43491 | 16874 ft | 292 kts | 197° |
| 2026-04-23 19:06 | 33.82423 | -116.43901 | 16872 ft | 291 kts | 198° |
| 2026-04-23 19:06 | 33.80428 | -116.44345 | 16867 ft | 292 kts | 199° |
| 2026-04-23 19:06 | 33.78430 | -116.44794 | 16873 ft | 292 kts | 198° |
| 2026-04-23 19:07 | 33.76452 | -116.45236 | 16870 ft | 293 kts | 198° |
| 2026-04-23 19:07 | 33.74444 | -116.45678 | 16869 ft | 294 kts | 198° |
| 2026-04-23 19:07 | 33.72428 | -116.46119 | 16861 ft | 295 kts | 198° |
| 2026-04-23 19:07 | 33.70403 | -116.46560 | 16870 ft | 294 kts | 198° |
| 2026-04-23 19:08 | 33.69064 | -116.46850 | 16870 ft | 295 kts | 198° |
| 2026-04-23 19:08 | 33.66360 | -116.47433 | 16858 ft | 296 kts | 198° |
| 2026-04-23 19:08 | 33.65015 | -116.47723 | 16861 ft | 296 kts | 198° |
| 2026-04-23 19:08 | 33.62986 | -116.48159 | 16865 ft | 296 kts | 198° |
| 2026-04-23 19:09 | 33.60960 | -116.48593 | 16862 ft | 296 kts | 198° |
| 2026-04-23 19:09 | 33.58276 | -116.49168 | 16854 ft | 296 kts | 198° |
| 2026-04-23 19:09 | 33.56904 | -116.49462 | 16853 ft | 295 kts | 198° |
| 2026-04-23 19:09 | 33.54907 | -116.49889 | 16860 ft | 295 kts | 198° |
| 2026-04-23 19:10 | 33.52888 | -116.50321 | 16854 ft | 295 kts | 198° |
| 2026-04-23 19:10 | 33.50862 | -116.50754 | 16858 ft | 295 kts | 198° |
| 2026-04-23 19:10 | 33.48842 | -116.51186 | 16839 ft | 294 kts | 198° |
| 2026-04-23 19:10 | 33.46829 | -116.51615 | 16848 ft | 293 kts | 198° |
| 2026-04-23 19:11 | 33.44835 | -116.52038 | 16835 ft | 285 kts | 198° |
| 2026-04-23 19:11 | 33.42926 | -116.52439 | 16829 ft | 272 kts | 198° |
| 2026-04-23 19:11 | 33.41110 | -116.52819 | 16833 ft | 258 kts | 199° |
| 2026-04-23 19:11 | 33.39406 | -116.53178 | 16829 ft | 245 kts | 199° |
| 2026-04-23 19:12 | 33.37766 | -116.53526 | 16832 ft | 232 kts | 200° |
| 2026-04-23 19:12 | 33.36202 | -116.53859 | 16850 ft | 226 kts | 200° |
| 2026-04-23 19:12 | 33.34645 | -116.54198 | 16854 ft | 230 kts | 200° |
| 2026-04-23 19:12 | 33.33043 | -116.54549 | 16871 ft | 238 kts | 200° |
| 2026-04-23 19:13 | 33.31404 | -116.54902 | 16869 ft | 239 kts | 199° |
| 2026-04-23 19:13 | 33.29771 | -116.55251 | 16855 ft | 237 kts | 199° |
| 2026-04-23 19:13 | 33.28153 | -116.55593 | 16838 ft | 234 kts | 199° |
| 2026-04-23 19:13 | 33.26561 | -116.55930 | 16606 ft | 231 kts | 199° |
| 2026-04-23 19:14 | 33.24998 | -116.56263 | 16215 ft | 232 kts | 199° |
| 2026-04-23 19:14 | 33.23403 | -116.56604 | 15757 ft | 236 kts | 199° |
| 2026-04-23 19:14 | 33.21731 | -116.56967 | 14975 ft | 253 kts | 198° |
| 2026-04-23 19:14 | 33.19936 | -116.57354 | 14145 ft | 270 kts | 198° |
| 2026-04-23 19:15 | 33.18035 | -116.57759 | 13285 ft | 285 kts | 197° |
| 2026-04-23 19:15 | 33.16052 | -116.58178 | 12522 ft | 291 kts | 195° |
| 2026-04-23 19:15 | 33.14138 | -116.58851 | 11813 ft | 284 kts | 214° |
| 2026-04-23 19:15 | 33.12623 | -116.60248 | 11491 ft | 270 kts | 229° |
| 2026-04-23 19:16 | 33.11340 | -116.61849 | 11217 ft | 264 kts | 231° |
| 2026-04-23 19:16 | 33.10101 | -116.63446 | 10761 ft | 262 kts | 231° |
| 2026-04-23 19:16 | 33.08863 | -116.65053 | 10204 ft | 265 kts | 231° |
| 2026-04-23 19:17 | 33.06383 | -116.68269 | 9181 ft | 264 kts | 230° |
| 2026-04-23 19:17 | 33.05123 | -116.69897 | 8614 ft | 264 kts | 229° |
| 2026-04-23 19:17 | 33.03874 | -116.71508 | 8102 ft | 265 kts | 229° |
| 2026-04-23 19:17 | 33.02626 | -116.73117 | 7590 ft | 264 kts | 229° |
| 2026-04-23 19:18 | 33.01391 | -116.74695 | 7108 ft | 263 kts | 228° |
| 2026-04-23 19:18 | 33.00130 | -116.76297 | 6556 ft | 267 kts | 227° |
| 2026-04-23 19:18 | 32.98846 | -116.77929 | 6161 ft | 270 kts | 227° |
| 2026-04-23 19:18 | 32.97575 | -116.79544 | 6031 ft | 262 kts | 227° |
| 2026-04-23 19:19 | 32.95174 | -116.82596 | 5892 ft | 244 kts | 227° |
| 2026-04-23 19:19 | 32.94033 | -116.84043 | 5836 ft | 236 kts | 227° |
| 2026-04-23 19:20 | 32.92743 | -116.87387 | 5686 ft | 218 kts | 257° |
| 2026-04-23 19:20 | 32.92394 | -116.89107 | 5584 ft | 209 kts | 256° |
| 2026-04-23 19:20 | 32.92059 | -116.90748 | 5329 ft | 205 kts | 257° |
| 2026-04-23 19:20 | 32.91732 | -116.92407 | 4852 ft | 208 kts | 256° |
| 2026-04-23 19:21 | 32.91372 | -116.94082 | 4453 ft | 208 kts | 256° |
| 2026-04-23 19:21 | 32.90661 | -116.97330 | 3933 ft | 192 kts | 257° |
| 2026-04-23 19:21 | 32.90324 | -116.98794 | 3683 ft | 179 kts | 255° |
| 2026-04-23 19:22 | 32.90020 | -117.00216 | 3207 ft | 176 kts | 257° |
| 2026-04-23 19:22 | 32.89725 | -117.01613 | 2748 ft | 171 kts | 256° |
| 2026-04-23 19:22 | 32.89135 | -117.04252 | 1974 ft | 155 kts | 256° |
| 2026-04-23 19:23 | 32.88878 | -117.05445 | 1787 ft | 141 kts | 256° |
| 2026-04-23 19:23 | 32.88644 | -117.06517 | 1569 ft | 127 kts | 257° |
| 2026-04-23 19:23 | 32.88424 | -117.07516 | 1419 ft | 124 kts | 257° |
| 2026-04-23 19:24 | 32.87991 | -117.09470 | 1049 ft | 121 kts | 258° |
| 2026-04-23 19:24 | 32.87776 | -117.10470 | 907 ft | 122 kts | 257° |
| 2026-04-23 19:24 | 32.87347 | -117.12443 | 590 ft | 130 kts | 256° |
| 2026-04-23 19:25 | 32.86943 | -117.14297 | 452 ft | 72 kts | 255° |
| 2026-04-23 19:25 | 32.87022 | -117.14580 | 447 ft | 17 kts | 15° |
| 2026-04-23 19:26 | 32.87092 | -117.14385 | 440 ft | 16 kts | 108° |
| 2026-04-23 19:26 | 32.87058 | -117.14262 | 448 ft | 15 kts | 109° |
| 2026-04-23 19:27 | 32.86990 | -117.14035 | 449 ft | 14 kts | 109° |
| 2026-04-23 19:27 | 32.86893 | -117.13728 | 453 ft | 13 kts | 108° |
| 2026-04-23 19:28 | 32.86915 | -117.13529 | 452 ft | 12 kts | 76° |
| 2026-04-23 19:28 | 32.86956 | -117.13327 | 453 ft | 15 kts | 76° |
| 2026-04-23 19:29 | 32.86981 | -117.13204 | 451 ft | 15 kts | 76° |
| 2026-04-23 19:29 | 32.87027 | -117.12972 | 452 ft | 14 kts | 76° |
| 2026-04-23 19:30 | 32.87072 | -117.12758 | 451 ft | 13 kts | 76° |
| 2026-04-23 19:30 | 32.87137 | -117.12697 | 452 ft | 13 kts | 7° |
| 2026-04-23 19:30 | 32.87178 | -117.12695 | 453 ft | 0 kts | 3° |
| 2026-04-23 19:42 | 32.87195 | -117.12694 | 451 ft | 11 kts | 1° |
| 2026-04-23 19:42 | 32.87281 | -117.12744 | 454 ft | 16 kts | 287° |